Airfield :
LOGIN :

Register | Disclaimer

   EN    FR    IT 

 










Legend :    VFR   Marginal VFR   IFR   Intensive IFR   Very Intensive IFR
Visi :
Ceiling :
>= 8 km
>= 3000ft
5 to 8 km
1000 to 3000 ft
1500m to 5 km
500 to 1000 ft
800 to 1500m
200 to 500 ft
< 800m
< 200 ft
Symbols :   Thunderstorms  Fog  Heavy snow  Heavy precipitations  Wind > 20 kt
SIGMETs :     Misc.  Thunderstorms  Icing  Turbulence  Mountain Waves  Volcanic Ashes







- Airport Elevation : 404 ft
- IATA code : WRO


EPWR - Wroclaw

CURRENT METAR :
  • 190230Z 27011KT 9999 BKN024 03/00 Q1009

EXPIRED METARs :
  • 190200Z 28012KT 9999 BKN023 04/01 Q1009
  • 190130Z 27011KT 9999 BKN023 04/00 Q1010
  • 190100Z 27009KT 9999 BKN033 03/00 Q1010
  • 190030Z 27012KT 9999 BKN036 04/01 Q1010
  • 190000Z 27014KT 9999 FEW027 BKN040 04/01 Q1010

TAF TAF EPWR
Valid from the 19 at 00:00 until the 20 at 00:00 UTC


182330Z 1900/1924 27012KT 9999 BKN030
PROB40
TEMPO 1910/1918 25015G25KT
No reported NOTAMs for that airfield.



MET'MAP, your aeronautical weather chart ! - Copyright ORBIFLY December 2007 - Disclaimer

ORBIFLY MET'MAP TEAM :

Programming & Development : Alexandra Zaïnal
Concept & Development : Baudouin d'Aumeries
Co-Development & Prog : Marc-Olivier Méhu
Technical & hardware support : Manuel Goepfert

Contact : metmap@orbifly.com




SOURCES & CREDITS :

   NOAA